PUA010 SUCA-SAZM
Flight info
| Callsign | PUA010 |
|---|---|
| Flight time | N/A |
| Altitude | 7000 |
| Route | PTA W59 TEDAR DCT MUDNO MUDNO1U |
| Aircraft | DA62/L-SDFGRY/C |
Departure
| Time | 2026-05-07 01:16 |
|---|---|
| Airport | Colonia Laguna de Los Patos International Airport (SUCA) |
Arrival
| Time | N/A |
|---|---|
| Airport | Ástor Piazzola International Airport (SAZM) |
| Time | Latitude | Longitude | Altitude | Speed | Heading |
|---|---|---|---|---|---|
| 2026-05-07 01:04 | -34.45372 | -57.77677 | 70 ft | 0 kts | 118° |
| 2026-05-07 01:10 | -34.45374 | -57.77673 | 72 ft | 8 kts | 118° |
| 2026-05-07 01:11 | -34.45487 | -57.77399 | 61 ft | 64 kts | 117° |
| 2026-05-07 01:11 | -34.45776 | -57.76857 | 48 ft | 59 kts | 76° |
| 2026-05-07 01:11 | -34.45651 | -57.76769 | 46 ft | 11 kts | 11° |
| 2026-05-07 01:11 | -34.45628 | -57.76781 | 47 ft | 0 kts | 336° |
| 2026-05-07 01:14 | -34.45624 | -57.76782 | 50 ft | 0 kts | 356° |
| 2026-05-07 01:14 | -34.45372 | -57.77677 | 70 ft | 0 kts | 118° |
| 2026-05-07 01:15 | -34.45415 | -57.77573 | 65 ft | 40 kts | 116° |
| 2026-05-07 01:15 | -34.45630 | -57.77100 | 55 ft | 83 kts | 120° |
| 2026-05-07 01:16 | -34.45988 | -57.76348 | 152 ft | 117 kts | 120° |
| 2026-05-07 01:16 | -34.46453 | -57.75485 | 433 ft | 127 kts | 117° |
| 2026-05-07 01:16 | -34.46943 | -57.74586 | 807 ft | 129 kts | 116° |
| 2026-05-07 01:16 | -34.47691 | -57.73874 | 1060 ft | 149 kts | 162° |
| 2026-05-07 01:17 | -34.48795 | -57.73847 | 1092 ft | 170 kts | 200° |
| 2026-05-07 01:17 | -34.49920 | -57.74321 | 1333 ft | 172 kts | 208° |
| 2026-05-07 01:17 | -34.51125 | -57.74479 | 1621 ft | 189 kts | 159° |
| 2026-05-07 01:17 | -34.51107 | -57.74119 | 1397 ft | 102 kts | 325° |
| 2026-05-07 01:18 | -34.51011 | -57.75058 | 1496 ft | 135 kts | 272° |
| 2026-05-07 01:18 | -34.51338 | -57.76214 | 1535 ft | 145 kts | 273° |
| 2026-05-07 01:18 | -34.51756 | -57.77405 | 1647 ft | 171 kts | 246° |
| 2026-05-07 01:18 | -34.52617 | -57.77066 | 739 ft | 172 kts | 43° |
| 2026-05-07 01:19 | -34.45372 | -57.77677 | 70 ft | 0 kts | 118° |
| 2026-05-07 01:20 | -34.45422 | -57.77572 | 69 ft | 41 kts | 118° |
| 2026-05-07 01:20 | -34.45650 | -57.77024 | 53 ft | 101 kts | 117° |
| 2026-05-07 01:20 | -34.46029 | -57.76133 | 164 ft | 128 kts | 116° |
| 2026-05-07 01:20 | -34.46519 | -57.75338 | 691 ft | 117 kts | 141° |
| 2026-05-07 01:21 | -34.47371 | -57.75131 | 887 ft | 138 kts | 200° |
| 2026-05-07 01:21 | -34.48174 | -57.75738 | 1062 ft | 145 kts | 237° |
| 2026-05-07 01:21 | -34.48991 | -57.76662 | 918 ft | 176 kts | 236° |
| 2026-05-07 01:21 | -34.49930 | -57.77710 | 805 ft | 190 kts | 223° |
| 2026-05-07 01:22 | -34.51132 | -57.78437 | 812 ft | 199 kts | 199° |
| 2026-05-07 01:22 | -34.52460 | -57.78753 | 959 ft | 192 kts | 195° |
| 2026-05-07 01:22 | -34.53776 | -57.79040 | 1205 ft | 187 kts | 201° |
| 2026-05-07 01:22 | -34.55043 | -57.79357 | 1451 ft | 186 kts | 202° |
| 2026-05-07 01:23 | -34.56315 | -57.79672 | 1688 ft | 188 kts | 200° |
| 2026-05-07 01:23 | -34.57628 | -57.79208 | 1655 ft | 215 kts | 142° |
| 2026-05-07 01:23 | -34.58637 | -57.77967 | 1817 ft | 197 kts | 102° |
| 2026-05-07 01:23 | -34.59019 | -57.76456 | 2044 ft | 180 kts | 84° |
| 2026-05-07 01:24 | -34.59027 | -57.75036 | 2064 ft | 164 kts | 52° |
| 2026-05-07 01:24 | -34.58598 | -57.73771 | 2124 ft | 164 kts | 47° |
| 2026-05-07 01:24 | -34.58086 | -57.72474 | 1948 ft | 175 kts | 45° |
| 2026-05-07 01:24 | -34.57381 | -57.71322 | 1816 ft | 165 kts | 29° |
| 2026-05-07 01:25 | -34.56549 | -57.70416 | 1769 ft | 159 kts | 24° |
| 2026-05-07 01:25 | -34.55685 | -57.69586 | 1707 ft | 158 kts | 23° |
| 2026-05-07 01:25 | -34.54812 | -57.68777 | 1639 ft | 158 kts | 22° |
| 2026-05-07 01:25 | -34.53917 | -57.68067 | 1647 ft | 148 kts | 16° |
| 2026-05-07 01:26 | -34.53063 | -57.67497 | 1765 ft | 140 kts | 12° |
| 2026-05-07 01:26 | -34.52172 | -57.67055 | 1833 ft | 132 kts | 3° |
| 2026-05-07 01:26 | -34.51346 | -57.67069 | 2007 ft | 116 kts | 340° |
| 2026-05-07 01:26 | -34.50563 | -57.67426 | 1633 ft | 125 kts | 334° |
| 2026-05-07 01:27 | -34.49839 | -57.68019 | 886 ft | 132 kts | 317° |
| 2026-05-07 01:27 | -34.49273 | -57.68995 | 223 ft | 140 kts | 305° |
| 2026-05-07 01:27 | -34.48777 | -57.70023 | 142 ft | 140 kts | 300° |
| 2026-05-07 01:27 | -34.48344 | -57.71044 | 226 ft | 137 kts | 298° |
| 2026-05-07 01:28 | -34.47939 | -57.72088 | 226 ft | 138 kts | 296° |
| 2026-05-07 01:28 | -34.47523 | -57.73181 | 237 ft | 147 kts | 300° |
| 2026-05-07 01:28 | -34.46989 | -57.74264 | 275 ft | 152 kts | 304° |
| 2026-05-07 01:28 | -34.46516 | -57.75201 | 142 ft | 105 kts | 304° |
| 2026-05-07 01:29 | -34.46220 | -57.75804 | 62 ft | 70 kts | 302° |
| 2026-05-07 01:29 | -34.45956 | -57.76379 | 70 ft | 85 kts | 290° |
| 2026-05-07 01:29 | -34.45727 | -57.76862 | 49 ft | 28 kts | 270° |
| 2026-05-07 01:29 | -34.45690 | -57.76949 | 51 ft | 10 kts | 67° |